createdAt,value
2024-03-02T00:00:29.715Z,100.00
2024-03-02T00:02:56.886Z,100.00
2024-03-02T00:05:24.006Z,100.00
2024-03-02T00:07:58.872Z,100.00
2024-03-02T00:10:41.472Z,100.00
2024-03-02T00:13:09.619Z,100.00
2024-03-02T00:15:45.915Z,100.00
2024-03-02T00:18:15.622Z,100.00
2024-03-02T00:20:42.631Z,100.00
2024-03-02T00:23:14.777Z,100.00
2024-03-02T00:25:46.684Z,100.00
2024-03-02T00:28:30.793Z,100.00
2024-03-02T00:31:05.855Z,100.00
2024-03-02T00:33:45.932Z,100.00
2024-03-02T00:36:15.447Z,100.00
2024-03-02T00:38:50.934Z,100.00
2024-03-02T00:41:18.033Z,100.00
2024-03-02T00:43:49.019Z,100.00
2024-03-02T00:46:20.845Z,100.00
2024-03-02T00:48:50.913Z,100.00
2024-03-02T00:51:17.734Z,100.00
2024-03-02T00:53:44.708Z,100.00
2024-03-02T00:56:13.125Z,100.00
2024-03-02T00:58:41.021Z,100.00
2024-03-02T01:01:08.555Z,100.00
2024-03-02T01:03:35.722Z,100.00
2024-03-02T01:06:03.445Z,100.00
2024-03-02T01:08:30.515Z,100.00
2024-03-02T01:10:57.794Z,100.00
2024-03-02T01:13:24.994Z,100.00
2024-03-02T01:15:52.513Z,100.00
2024-03-02T01:18:19.540Z,100.00
2024-03-02T01:20:46.671Z,100.00
2024-03-02T01:23:13.875Z,100.00
2024-03-02T01:25:41.167Z,100.00
2024-03-02T01:28:08.171Z,100.00
2024-03-02T01:30:35.020Z,100.00
2024-03-02T01:33:03.402Z,100.00
2024-03-02T01:35:30.316Z,100.00
2024-03-02T01:37:57.258Z,100.00
2024-03-02T01:40:27.611Z,100.00
2024-03-02T01:42:55.752Z,100.00
2024-03-02T01:45:23.310Z,100.00
2024-03-02T01:47:50.688Z,100.00
2024-03-02T01:50:26.256Z,100.00
2024-03-02T01:52:53.336Z,100.00
2024-03-02T01:55:20.149Z,100.00
2024-03-02T01:57:48.296Z,100.00
2024-03-02T02:00:16.113Z,100.00
2024-03-02T02:02:43.127Z,100.00
2024-03-02T02:05:10.359Z,100.00
2024-03-02T02:07:37.370Z,100.00
2024-03-02T02:10:04.904Z,100.00
2024-03-02T02:12:32.828Z,100.00
2024-03-02T02:15:00.198Z,100.00
2024-03-02T02:17:27.459Z,100.00
2024-03-02T02:19:54.613Z,100.00
2024-03-02T02:22:21.397Z,100.00
2024-03-02T02:24:48.264Z,100.00
2024-03-02T02:27:16.488Z,100.00
2024-03-02T02:29:43.493Z,100.00
2024-03-02T02:32:10.412Z,100.00
2024-03-02T02:34:37.484Z,100.00
2024-03-02T02:37:04.542Z,100.00
2024-03-02T02:39:31.627Z,100.00
2024-03-02T02:42:01.617Z,100.00
2024-03-02T02:44:28.460Z,100.00
2024-03-02T02:46:55.292Z,100.00
2024-03-02T02:49:22.092Z,100.00
2024-03-02T02:51:49.009Z,100.00
2024-03-02T02:54:15.957Z,100.00
2024-03-02T02:56:42.789Z,100.00
2024-03-02T02:59:09.669Z,100.00
2024-03-02T03:01:36.608Z,100.00
2024-03-02T03:04:03.533Z,100.00
2024-03-02T03:06:30.348Z,100.00
2024-03-02T03:08:57.269Z,100.00
2024-03-02T03:11:26.033Z,100.00
2024-03-02T03:13:54.168Z,100.00
2024-03-02T03:16:21.087Z,100.00
2024-03-02T03:18:48.044Z,100.00
2024-03-02T03:21:14.938Z,100.00
2024-03-02T03:23:41.752Z,100.00
2024-03-02T03:26:08.615Z,100.00
2024-03-02T03:28:35.528Z,100.00
2024-03-02T03:31:03.405Z,100.00
2024-03-02T03:33:30.316Z,100.00
2024-03-02T03:35:57.192Z,99.92
2024-03-02T03:38:24.062Z,100.00
2024-03-02T03:40:51.005Z,100.00
2024-03-02T03:43:18.087Z,100.00
2024-03-02T03:45:45.419Z,100.00
2024-03-02T03:48:12.388Z,100.00
2024-03-02T03:50:39.329Z,100.00
2024-03-02T03:53:06.202Z,100.00
2024-03-02T03:55:33.076Z,100.00
2024-03-02T03:58:00.114Z,100.00
2024-03-02T04:00:27.248Z,100.00
2024-03-02T04:02:54.129Z,100.00
2024-03-02T04:05:20.948Z,100.00
2024-03-02T04:07:47.808Z,100.00
2024-03-02T04:10:14.965Z,100.00
2024-03-02T04:12:41.890Z,100.00
2024-03-02T04:15:09.521Z,100.00
2024-03-02T04:17:37.217Z,100.00
2024-03-02T04:20:06.480Z,100.00
2024-03-02T04:22:34.775Z,100.00
2024-03-02T04:25:02.448Z,100.00
2024-03-02T04:27:30.198Z,100.00
2024-03-02T04:29:57.084Z,100.00
2024-03-02T04:32:23.992Z,100.00
2024-03-02T04:34:50.833Z,100.00
2024-03-02T04:37:17.791Z,100.00
2024-03-02T04:39:44.798Z,100.00
2024-03-02T04:42:11.762Z,100.00
2024-03-02T04:44:39.447Z,100.00
2024-03-02T04:47:06.509Z,100.00
2024-03-02T04:49:33.535Z,100.00
2024-03-02T04:52:00.642Z,100.00
2024-03-02T04:54:28.098Z,100.00
2024-03-02T04:56:54.967Z,100.00
2024-03-02T04:59:21.990Z,100.00
2024-03-02T05:01:49.101Z,100.00
2024-03-02T05:04:16.074Z,100.00
2024-03-02T05:06:43.014Z,100.00
2024-03-02T05:09:10.807Z,100.00
2024-03-02T05:11:40.491Z,100.00
2024-03-02T05:14:07.935Z,100.00
2024-03-02T05:16:35.766Z,100.00
2024-03-02T05:19:02.907Z,100.00
2024-03-02T05:21:29.846Z,100.00
2024-03-02T05:23:56.718Z,100.00
2024-03-02T05:26:23.751Z,100.00
2024-03-02T05:28:50.621Z,100.00
2024-03-02T05:31:17.840Z,100.00
2024-03-02T05:33:45.354Z,100.00
2024-03-02T05:36:12.335Z,100.00
2024-03-02T05:38:39.305Z,100.00
2024-03-02T05:41:06.182Z,100.00
2024-03-02T05:43:33.089Z,100.00
2024-03-02T05:46:00.053Z,100.00
2024-03-02T05:48:26.896Z,100.00
2024-03-02T05:50:53.742Z,100.00
2024-03-02T05:53:20.760Z,100.00
2024-03-02T05:55:48.242Z,100.00
2024-03-02T05:58:32.469Z,100.00
2024-03-02T06:00:59.606Z,100.00
2024-03-02T06:03:27.163Z,100.00
2024-03-02T06:05:54.212Z,99.39
2024-03-02T06:08:21.437Z,99.51
2024-03-02T06:10:48.328Z,99.22
2024-03-02T06:13:15.258Z,99.25
2024-03-02T06:15:42.594Z,98.70
2024-03-02T06:18:09.571Z,98.51
2024-03-02T06:20:37.216Z,98.33
2024-03-02T06:23:05.488Z,98.02
2024-03-02T06:25:32.440Z,97.67
2024-03-02T06:27:59.652Z,97.50
2024-03-02T06:30:26.684Z,97.40
2024-03-02T06:32:53.681Z,97.81
2024-03-02T06:35:20.713Z,97.07
2024-03-02T06:37:47.563Z,96.03
2024-03-02T06:40:14.936Z,95.84
2024-03-02T06:42:41.914Z,95.99
2024-03-02T06:45:09.042Z,96.50
2024-03-02T06:47:35.934Z,96.26
2024-03-02T06:50:02.963Z,96.25
2024-03-02T06:52:31.141Z,95.86
2024-03-02T06:54:58.077Z,95.61
2024-03-02T06:57:25.817Z,96.01
2024-03-02T06:59:55.126Z,95.04
2024-03-02T07:02:22.298Z,95.19
2024-03-02T07:04:49.228Z,93.59
2024-03-02T07:07:16.046Z,92.58
2024-03-02T07:09:42.924Z,92.45
2024-03-02T07:12:09.973Z,93.22
2024-03-02T07:15:06.052Z,93.24
2024-03-02T07:17:34.149Z,92.47
2024-03-02T07:20:01.162Z,92.54
2024-03-02T07:22:28.071Z,93.02
2024-03-02T07:24:54.999Z,92.11
2024-03-02T07:27:21.948Z,91.24
2024-03-02T07:29:48.795Z,90.94
2024-03-02T07:32:16.146Z,90.54
2024-03-02T07:34:42.950Z,91.24
2024-03-02T07:37:10.003Z,89.91
2024-03-02T07:39:36.964Z,89.49
2024-03-02T07:42:03.928Z,89.26
2024-03-02T07:44:30.831Z,89.15
2024-03-02T07:47:01.099Z,89.76
2024-03-02T07:49:28.102Z,89.52
2024-03-02T07:51:55.067Z,89.88
2024-03-02T07:54:21.999Z,88.92
2024-03-02T07:56:48.861Z,88.30
2024-03-02T07:59:15.702Z,88.82
2024-03-02T08:01:42.934Z,88.65
2024-03-02T08:04:10.021Z,88.42
2024-03-02T08:06:37.014Z,88.28
2024-03-02T08:09:10.340Z,87.80
2024-03-02T08:11:38.521Z,87.17
2024-03-02T08:14:05.836Z,87.42
2024-03-02T08:16:33.953Z,87.33
2024-03-02T08:19:01.104Z,87.57
2024-03-02T08:21:31.548Z,87.65
2024-03-02T08:23:59.315Z,87.66
2024-03-02T08:26:26.263Z,87.59
2024-03-02T08:28:53.176Z,87.37
2024-03-02T08:31:20.122Z,87.32
2024-03-02T08:33:47.146Z,85.90
2024-03-02T08:36:14.059Z,85.68
2024-03-02T08:38:41.204Z,84.71
2024-03-02T08:41:08.609Z,84.92
2024-03-02T08:43:35.634Z,84.37
2024-03-02T08:46:03.087Z,84.49
2024-03-02T08:48:30.097Z,84.31
2024-03-02T08:50:57.023Z,85.10
2024-03-02T08:53:23.938Z,84.31
2024-03-02T08:55:51.199Z,83.90
2024-03-02T08:58:18.195Z,84.46
2024-03-02T09:00:45.492Z,84.82
2024-03-02T09:03:12.583Z,85.19
2024-03-02T09:05:39.447Z,85.40
2024-03-02T09:08:06.626Z,85.46
2024-03-02T09:10:34.174Z,85.20
2024-03-02T09:13:01.387Z,85.39
2024-03-02T09:15:28.429Z,85.28
2024-03-02T09:17:55.487Z,85.85
2024-03-02T09:20:22.448Z,85.93
2024-03-02T09:22:50.059Z,86.61
2024-03-02T09:25:17.397Z,86.55
2024-03-02T09:27:45.255Z,85.59
2024-03-02T09:30:12.725Z,85.80
2024-03-02T09:32:39.849Z,85.71
2024-03-02T09:35:07.329Z,85.68
2024-03-02T09:37:34.315Z,84.83
2024-03-02T09:40:01.924Z,84.78
2024-03-02T09:42:29.366Z,83.85
2024-03-02T09:44:56.454Z,83.60
2024-03-02T09:47:23.334Z,83.47
2024-03-02T09:49:50.578Z,83.29
2024-03-02T09:52:17.526Z,83.50
2024-03-02T09:54:44.860Z,83.21
2024-03-02T09:57:11.851Z,82.66
2024-03-02T09:59:38.882Z,82.07
2024-03-02T10:02:08.311Z,80.99
2024-03-02T10:04:38.545Z,80.31
2024-03-02T10:07:16.372Z,79.58
2024-03-02T10:09:46.300Z,78.20
2024-03-02T10:12:15.418Z,78.15
2024-03-02T10:14:43.022Z,78.17
2024-03-02T10:17:12.112Z,77.99
2024-03-02T10:19:44.478Z,77.38
2024-03-02T10:22:11.851Z,77.11
2024-03-02T10:24:42.602Z,77.30
2024-03-02T10:27:17.540Z,76.69
2024-03-02T10:29:48.141Z,77.07
2024-03-02T10:32:16.073Z,76.82
2024-03-02T10:34:45.358Z,76.35
2024-03-02T10:37:13.475Z,76.31
2024-03-02T10:39:41.975Z,76.28
2024-03-02T10:42:09.366Z,76.00
2024-03-02T10:44:36.687Z,74.34
2024-03-02T10:47:05.712Z,72.50
2024-03-02T10:49:34.021Z,72.63
2024-03-02T10:52:01.425Z,70.22
2024-03-02T10:54:31.104Z,69.59
2024-03-02T10:57:01.483Z,68.37
2024-03-02T10:59:41.001Z,66.87
2024-03-02T11:02:12.219Z,65.32
2024-03-02T11:04:42.048Z,65.78
2024-03-02T11:07:13.739Z,66.10
2024-03-02T11:09:49.797Z,71.10
2024-03-02T11:12:21.025Z,65.11
2024-03-02T11:14:48.037Z,64.42
2024-03-02T11:17:19.192Z,64.23
2024-03-02T11:19:47.319Z,65.35
2024-03-02T11:22:14.845Z,66.98
2024-03-02T11:24:50.338Z,67.64
2024-03-02T11:27:46.346Z,68.08
2024-03-02T11:30:33.995Z,69.45
2024-03-02T11:33:04.559Z,69.39
2024-03-02T11:35:32.373Z,70.01
2024-03-02T11:38:00.120Z,70.54
2024-03-02T11:40:27.412Z,70.43
2024-03-02T11:42:54.847Z,70.72
2024-03-02T11:45:25.875Z,71.73
2024-03-02T11:47:55.364Z,71.05
2024-03-02T11:50:36.645Z,71.09
2024-03-02T11:53:07.241Z,70.90
2024-03-02T11:55:37.160Z,71.12
2024-03-02T11:58:05.777Z,71.79
2024-03-02T12:00:32.886Z,71.07
2024-03-02T12:03:13.874Z,69.31
2024-03-02T12:05:41.086Z,68.14
2024-03-02T12:08:08.606Z,65.81
2024-03-02T12:10:37.372Z,65.54
2024-03-02T12:13:06.345Z,64.10
2024-03-02T12:15:35.790Z,61.53
2024-03-02T12:18:03.162Z,59.93
2024-03-02T12:20:31.785Z,58.31
2024-03-02T12:23:05.980Z,57.56
2024-03-02T12:25:37.858Z,54.70
2024-03-02T12:28:05.634Z,53.67
2024-03-02T12:30:37.039Z,52.16
2024-03-02T12:33:04.494Z,50.64
2024-03-02T12:35:31.526Z,49.57
2024-03-02T12:37:59.672Z,48.92
2024-03-02T12:40:26.705Z,49.12
2024-03-02T12:42:53.730Z,49.71
2024-03-02T12:45:25.747Z,48.71
2024-03-02T12:47:53.381Z,48.17
2024-03-02T12:50:21.002Z,49.28
2024-03-02T12:52:57.069Z,50.41
2024-03-02T12:55:25.075Z,50.06
2024-03-02T12:57:55.516Z,50.60
2024-03-02T13:00:24.080Z,50.61
2024-03-02T13:02:52.820Z,50.49
2024-03-02T13:05:21.186Z,50.96
2024-03-02T13:07:50.128Z,51.85
2024-03-02T13:10:19.236Z,52.39
2024-03-02T13:12:46.801Z,54.09
2024-03-02T13:15:17.441Z,56.15
2024-03-02T13:17:47.732Z,57.18
2024-03-02T13:20:16.142Z,58.64
2024-03-02T13:22:43.395Z,61.02
2024-03-02T13:25:12.280Z,63.06
2024-03-02T13:27:39.776Z,63.97
2024-03-02T13:30:07.412Z,65.66
2024-03-02T13:32:34.468Z,65.26
2024-03-02T13:35:01.723Z,65.66
2024-03-02T13:37:28.694Z,66.21
2024-03-02T13:39:55.789Z,66.78
2024-03-02T13:42:23.021Z,65.84
2024-03-02T13:44:52.162Z,65.90
2024-03-02T13:47:19.100Z,66.47
2024-03-02T13:49:48.229Z,66.81
2024-03-02T13:52:18.057Z,66.60
2024-03-02T13:54:47.776Z,66.82
2024-03-02T13:57:15.873Z,66.91
2024-03-02T13:59:44.810Z,68.16
2024-03-02T14:02:13.381Z,68.67
2024-03-02T14:04:40.951Z,68.44
2024-03-02T14:07:08.894Z,69.01
2024-03-02T14:09:36.397Z,68.52
2024-03-02T14:12:04.102Z,68.76
2024-03-02T14:14:31.047Z,68.19
2024-03-02T14:17:01.542Z,66.26
2024-03-02T14:19:28.787Z,65.44
2024-03-02T14:21:55.864Z,65.49
2024-03-02T14:24:26.908Z,63.84
2024-03-02T14:27:00.737Z,63.15
2024-03-02T14:29:30.876Z,62.73
2024-03-02T14:31:57.792Z,62.58
2024-03-02T14:34:24.686Z,63.04
2024-03-02T14:36:51.862Z,64.69
2024-03-02T14:39:20.772Z,65.52
2024-03-02T14:41:47.945Z,68.26
2024-03-02T14:44:14.847Z,68.15
2024-03-02T14:46:42.940Z,70.33
2024-03-02T14:49:11.953Z,70.67
2024-03-02T14:51:39.046Z,71.15
2024-03-02T14:54:06.160Z,72.45
2024-03-02T14:56:33.098Z,72.75
2024-03-02T14:58:59.995Z,73.20
2024-03-02T15:01:27.190Z,74.33
2024-03-02T15:03:54.061Z,75.62
2024-03-02T15:06:21.011Z,74.87
2024-03-02T15:11:15.646Z,76.01
2024-03-02T15:13:43.625Z,76.67
2024-03-02T15:16:10.887Z,76.63
2024-03-02T15:18:38.069Z,76.56
2024-03-02T15:21:05.514Z,76.58
2024-03-02T15:23:32.436Z,77.03
2024-03-02T15:25:59.516Z,77.22
2024-03-02T15:28:26.377Z,77.08
2024-03-02T15:30:54.184Z,77.46
2024-03-02T15:33:26.370Z,78.85
2024-03-02T15:35:55.220Z,78.66
2024-03-02T15:38:32.502Z,79.75
2024-03-02T15:41:01.462Z,77.78
2024-03-02T15:43:28.395Z,78.43
2024-03-02T15:45:55.475Z,78.88
2024-03-02T15:48:22.432Z,79.58
2024-03-02T15:50:51.247Z,80.40
2024-03-02T15:53:18.121Z,80.38
2024-03-02T15:55:45.336Z,81.77
2024-03-02T15:58:12.397Z,80.52
2024-03-02T16:00:39.519Z,80.91
2024-03-02T16:03:06.554Z,81.42
2024-03-02T16:05:33.492Z,81.78
2024-03-02T16:08:00.347Z,82.93
2024-03-02T16:10:28.141Z,83.51
2024-03-02T16:12:56.977Z,83.70
2024-03-02T16:15:24.220Z,83.81
2024-03-02T16:17:51.148Z,84.11
2024-03-02T16:20:18.108Z,85.30
2024-03-02T16:22:44.996Z,85.15
2024-03-02T16:25:12.073Z,85.47
2024-03-02T16:27:39.492Z,85.89
2024-03-02T16:30:07.704Z,86.34
2024-03-02T16:32:34.931Z,86.58
2024-03-02T16:35:01.950Z,86.18
2024-03-02T16:37:30.819Z,86.49
2024-03-02T16:39:58.090Z,87.27
2024-03-02T16:42:25.744Z,87.35
2024-03-02T16:44:56.088Z,87.83
2024-03-02T16:47:27.626Z,88.08
2024-03-02T16:49:56.835Z,87.97
2024-03-02T16:52:29.443Z,87.69
2024-03-02T16:54:57.040Z,87.97
2024-03-02T16:57:24.985Z,87.93
2024-03-02T16:59:52.222Z,88.09
2024-03-02T17:02:21.318Z,87.94
2024-03-02T17:04:48.673Z,88.23
2024-03-02T17:07:15.898Z,88.67
2024-03-02T17:09:43.057Z,89.03
2024-03-02T17:12:10.467Z,88.75
2024-03-02T17:14:37.922Z,88.67
2024-03-02T17:17:05.125Z,89.74
2024-03-02T17:19:32.103Z,89.12
2024-03-02T17:21:59.015Z,89.82
2024-03-02T17:24:26.498Z,89.38
2024-03-02T17:26:53.975Z,90.13
2024-03-02T17:29:21.478Z,90.10
2024-03-02T17:31:48.474Z,89.95
2024-03-02T17:34:15.622Z,90.58
2024-03-02T17:36:43.557Z,90.26
2024-03-02T17:39:11.188Z,90.50
2024-03-02T17:41:39.724Z,90.51
2024-03-02T17:44:07.442Z,90.32
2024-03-02T17:46:34.670Z,89.30
2024-03-02T17:49:02.607Z,89.66
2024-03-02T17:51:30.308Z,88.87
2024-03-02T17:53:57.737Z,88.69
2024-03-02T17:56:25.195Z,88.72
2024-03-02T17:58:52.874Z,88.32
2024-03-02T18:01:22.729Z,89.13
2024-03-02T18:03:50.622Z,87.01
2024-03-02T18:06:19.277Z,88.32
2024-03-02T18:08:50.430Z,86.26
2024-03-02T18:11:19.689Z,86.50
2024-03-02T18:13:47.727Z,85.84
2024-03-02T18:16:19.231Z,85.33
2024-03-02T18:18:49.613Z,85.07
2024-03-02T18:21:17.073Z,85.74
2024-03-02T18:23:44.168Z,85.07
2024-03-02T18:26:11.290Z,86.06
2024-03-02T18:28:41.016Z,85.16
2024-03-02T18:31:08.544Z,84.69
2024-03-02T18:33:35.769Z,84.15
2024-03-02T18:36:04.975Z,84.34
2024-03-02T18:38:32.897Z,83.88
2024-03-02T18:41:00.629Z,84.39
2024-03-02T18:43:28.210Z,84.00
2024-03-02T18:45:57.035Z,85.02
2024-03-02T18:48:24.349Z,84.33
2024-03-02T18:50:51.864Z,84.46
2024-03-02T18:53:18.993Z,84.60
2024-03-02T18:55:46.107Z,84.55
2024-03-02T18:58:13.090Z,84.47
2024-03-02T19:00:41.216Z,84.36
2024-03-02T19:03:11.033Z,84.25
2024-03-02T19:05:39.002Z,84.28
2024-03-02T19:08:06.869Z,84.57
2024-03-02T19:10:34.563Z,85.46
2024-03-02T19:13:01.716Z,85.37
2024-03-02T19:15:28.966Z,84.52
2024-03-02T19:17:55.948Z,84.94
2024-03-02T19:20:24.593Z,84.95
2024-03-02T19:22:52.545Z,84.75
2024-03-02T19:25:21.523Z,85.05
2024-03-02T19:27:48.524Z,85.33
2024-03-02T19:30:16.069Z,85.42
2024-03-02T19:32:43.529Z,85.56
2024-03-02T19:35:13.161Z,85.95
2024-03-02T19:37:42.020Z,86.28
2024-03-02T19:40:11.149Z,86.19
2024-03-02T19:42:38.449Z,86.59
2024-03-02T19:45:06.558Z,86.79
2024-03-02T19:47:33.775Z,87.45
2024-03-02T19:50:00.802Z,88.25
2024-03-02T19:52:28.904Z,88.22
2024-03-02T19:54:55.919Z,88.41
2024-03-02T19:57:24.808Z,88.71
2024-03-02T19:59:52.034Z,89.01
2024-03-02T20:02:21.295Z,89.14
2024-03-02T20:04:48.732Z,89.48
2024-03-02T20:07:16.518Z,89.74
2024-03-02T20:09:43.447Z,90.53
2024-03-02T20:12:10.670Z,90.54
2024-03-02T20:14:37.644Z,90.57
2024-03-02T20:17:04.753Z,90.74
2024-03-02T20:19:31.557Z,90.85
2024-03-02T20:21:59.698Z,90.93
2024-03-02T20:24:26.688Z,91.01
2024-03-02T20:26:53.671Z,91.13
2024-03-02T20:29:20.622Z,91.39
2024-03-02T20:31:48.171Z,91.69
2024-03-02T20:34:17.879Z,91.40
2024-03-02T20:36:45.888Z,91.64
2024-03-02T20:39:12.797Z,91.27
2024-03-02T20:41:39.676Z,91.29
2024-03-02T20:44:07.081Z,91.21
2024-03-02T20:46:33.915Z,90.60
2024-03-02T20:49:01.378Z,91.14
2024-03-02T20:51:30.892Z,91.26
2024-03-02T20:53:58.337Z,91.25
2024-03-02T20:56:27.571Z,91.64
2024-03-02T20:58:54.583Z,92.00
2024-03-02T21:01:22.586Z,93.39
2024-03-02T21:03:49.580Z,92.26
2024-03-02T21:06:16.631Z,92.02
2024-03-02T21:08:43.495Z,91.65
2024-03-02T21:11:10.647Z,91.70
2024-03-02T21:13:38.087Z,91.70
2024-03-02T21:16:05.375Z,92.22
2024-03-02T21:18:32.409Z,91.66
2024-03-02T21:20:59.346Z,91.16
2024-03-02T21:23:26.218Z,90.89
2024-03-02T21:25:53.146Z,90.88
2024-03-02T21:28:20.348Z,90.63
2024-03-02T21:30:47.194Z,91.34
2024-03-02T21:33:14.221Z,91.73
2024-03-02T21:35:41.077Z,92.03
2024-03-02T21:38:08.620Z,92.62
2024-03-02T21:40:35.556Z,92.69
2024-03-02T21:43:02.587Z,92.63
2024-03-02T21:45:29.612Z,92.95
2024-03-02T21:47:56.536Z,93.38
2024-03-02T21:50:23.441Z,93.50
2024-03-02T21:52:50.484Z,93.64
2024-03-02T21:55:17.514Z,93.81
2024-03-02T21:57:45.630Z,93.69
2024-03-02T22:00:12.730Z,93.68
2024-03-02T22:02:40.110Z,93.73
2024-03-02T22:05:08.231Z,94.04
2024-03-02T22:07:35.328Z,93.88
2024-03-02T22:10:02.460Z,94.18
2024-03-02T22:12:31.025Z,94.18
2024-03-02T22:14:57.974Z,94.35
2024-03-02T22:17:26.864Z,94.68
2024-03-02T22:19:53.712Z,94.60
2024-03-02T22:22:23.247Z,94.61
2024-03-02T22:24:50.180Z,94.48
2024-03-02T22:27:17.001Z,94.67
2024-03-02T22:29:43.964Z,94.72
2024-03-02T22:32:10.819Z,94.76
2024-03-02T22:34:37.637Z,94.85
2024-03-02T22:37:04.793Z,94.89
2024-03-02T22:39:31.836Z,95.16
2024-03-02T22:41:58.712Z,94.92
2024-03-02T22:44:25.616Z,94.98
2024-03-02T22:46:52.648Z,94.85
2024-03-02T22:49:19.660Z,94.65
2024-03-02T22:51:46.719Z,94.55
2024-03-02T22:54:13.586Z,94.33
2024-03-02T22:56:40.484Z,94.16
2024-03-02T22:59:07.325Z,94.15
2024-03-02T23:01:36.058Z,94.25
2024-03-02T23:04:04.357Z,94.27
2024-03-02T23:06:31.289Z,94.65
2024-03-02T23:08:58.117Z,94.10
2024-03-02T23:11:25.095Z,94.42
2024-03-02T23:13:52.018Z,94.63
2024-03-02T23:16:18.997Z,94.64
2024-03-02T23:18:45.932Z,94.70
2024-03-02T23:21:12.937Z,94.79
2024-03-02T23:23:39.772Z,94.92
2024-03-02T23:26:07.643Z,94.98
2024-03-02T23:28:34.636Z,95.04
2024-03-02T23:31:01.669Z,94.80
2024-03-02T23:33:28.518Z,94.69
2024-03-02T23:35:55.499Z,94.52
2024-03-02T23:38:22.348Z,94.63
2024-03-02T23:40:49.153Z,94.76
2024-03-02T23:43:16.173Z,94.72
2024-03-02T23:45:43.225Z,94.54
2024-03-02T23:48:11.718Z,94.59
2024-03-02T23:50:38.749Z,94.78
2024-03-02T23:53:05.697Z,94.79
2024-03-02T23:55:43.016Z,94.97
2024-03-02T23:58:18.572Z,94.87
